createdAt,value
2023-04-24T00:00:52.336Z,16.52
2023-04-24T00:03:23.494Z,17.85
2023-04-24T00:05:54.055Z,15.15
2023-04-24T00:08:25.060Z,14.13
2023-04-24T00:10:55.389Z,15.27
2023-04-24T00:13:29.634Z,25.55
2023-04-24T00:15:59.936Z,19.55
2023-04-24T00:18:30.266Z,17.23
2023-04-24T00:21:00.611Z,15.75
2023-04-24T00:23:31.002Z,17.80
2023-04-24T00:26:01.323Z,17.65
2023-04-24T00:28:34.235Z,16.38
2023-04-24T00:31:04.556Z,15.05
2023-04-24T00:33:34.925Z,14.50
2023-04-24T00:36:05.300Z,13.55
2023-04-24T00:38:35.639Z,8.13
2023-04-24T00:41:06.021Z,13.13
2023-04-24T00:43:39.063Z,12.38
2023-04-24T00:46:09.481Z,11.25
2023-04-24T00:48:40.215Z,9.60
2023-04-24T00:51:10.591Z,7.75
2023-04-24T00:53:41.026Z,11.60
2023-04-24T00:56:11.466Z,12.68
2023-04-24T00:58:44.496Z,11.18
2023-04-24T01:01:15.380Z,10.73
2023-04-24T01:03:46.743Z,8.73
2023-04-24T01:06:17.808Z,7.57
2023-04-24T01:08:48.292Z,10.73
2023-04-24T01:11:19.128Z,11.45
2023-04-24T01:13:52.240Z,12.35
2023-04-24T01:16:22.996Z,10.18
2023-04-24T01:18:53.481Z,10.90
2023-04-24T01:21:25.461Z,12.98
2023-04-24T01:23:58.413Z,5.97
2023-04-24T01:26:28.821Z,13.77
2023-04-24T01:28:59.195Z,9.98
2023-04-24T01:31:29.588Z,11.70
2023-04-24T01:34:00.752Z,9.98
2023-04-24T01:36:32.599Z,14.18
2023-04-24T01:39:05.636Z,13.18
2023-04-24T01:41:36.309Z,10.73
2023-04-24T01:44:07.114Z,11.57
2023-04-24T01:46:38.275Z,13.75
2023-04-24T01:49:08.725Z,14.68
2023-04-24T01:51:39.055Z,6.15
2023-04-24T01:54:12.189Z,11.57
2023-04-24T01:56:44.145Z,7.85
2023-04-24T01:59:14.733Z,11.95
2023-04-24T02:01:45.054Z,12.30
2023-04-24T02:04:16.652Z,11.20
2023-04-24T02:06:47.115Z,9.52
2023-04-24T02:09:20.350Z,8.70
2023-04-24T02:11:50.799Z,5.72
2023-04-24T02:14:21.197Z,5.45
2023-04-24T02:16:51.667Z,9.27
2023-04-24T02:19:22.211Z,10.35
2023-04-24T02:21:52.508Z,12.50
2023-04-24T02:24:25.581Z,9.57
2023-04-24T02:26:55.980Z,10.00
2023-04-24T02:29:26.342Z,9.00
2023-04-24T02:31:56.675Z,9.05
2023-04-24T02:34:27.056Z,10.02
2023-04-24T02:36:57.743Z,9.77
2023-04-24T02:39:30.654Z,9.90
2023-04-24T02:42:01.400Z,9.68
2023-04-24T02:44:31.722Z,10.02
2023-04-24T02:47:02.052Z,9.52
2023-04-24T02:49:32.387Z,13.32
2023-04-24T02:52:02.741Z,12.85
2023-04-24T02:54:35.935Z,13.10
2023-04-24T02:57:07.305Z,12.95
2023-04-24T02:59:37.730Z,10.98
2023-04-24T03:02:08.137Z,13.98
2023-04-24T03:04:38.965Z,14.30
2023-04-24T03:07:09.300Z,15.73
2023-04-24T03:09:42.539Z,14.50
2023-04-24T03:12:13.037Z,13.80
2023-04-24T03:14:43.350Z,13.88
2023-04-24T03:17:13.633Z,19.35
2023-04-24T03:19:44.282Z,13.68
2023-04-24T03:22:14.847Z,9.40
2023-04-24T03:24:47.790Z,13.88
2023-04-24T03:27:18.092Z,9.52
2023-04-24T03:29:48.413Z,11.57
2023-04-24T03:32:18.686Z,12.38
2023-04-24T03:34:49.043Z,7.30
2023-04-24T03:37:19.390Z,6.97
2023-04-24T03:39:52.306Z,9.07
2023-04-24T03:42:22.692Z,7.05
2023-04-24T03:44:53.063Z,5.50
2023-04-24T03:47:23.359Z,6.07
2023-04-24T03:49:55.066Z,4.32
2023-04-24T03:52:25.346Z,4.18
2023-04-24T03:54:58.320Z,8.07
2023-04-24T03:57:29.075Z,6.80
2023-04-24T03:59:59.421Z,3.85
2023-04-24T04:02:29.856Z,5.10
2023-04-24T04:05:00.585Z,7.65
2023-04-24T04:07:30.975Z,4.40
2023-04-24T04:10:04.644Z,4.70
2023-04-24T04:12:34.920Z,7.28
2023-04-24T04:15:05.983Z,6.60
2023-04-24T04:17:36.686Z,6.13
2023-04-24T04:20:10.562Z,5.35
2023-04-24T04:22:43.462Z,6.07
2023-04-24T04:25:20.476Z,7.22
2023-04-24T04:27:52.287Z,6.78
2023-04-24T04:30:23.175Z,6.72
2023-04-24T04:32:53.468Z,7.30
2023-04-24T04:35:24.001Z,8.40
2023-04-24T04:37:54.313Z,7.90
2023-04-24T04:40:28.150Z,5.25
2023-04-24T04:42:58.435Z,9.18
2023-04-24T04:45:29.757Z,8.73
2023-04-24T04:48:01.936Z,7.82
2023-04-24T04:50:32.625Z,10.43
2023-04-24T04:53:02.891Z,14.93
2023-04-24T04:55:36.186Z,12.35
2023-04-24T04:58:07.015Z,13.55
2023-04-24T05:00:38.746Z,10.82
2023-04-24T05:03:19.993Z,11.50
2023-04-24T05:05:52.111Z,12.85
2023-04-24T05:10:58.704Z,15.00
2023-04-24T05:13:39.287Z,14.52
2023-04-24T05:16:11.224Z,13.95
2023-04-24T05:18:41.684Z,13.77
2023-04-24T05:21:12.033Z,12.75
2023-04-24T05:23:42.412Z,12.68
2023-04-24T05:26:15.364Z,15.95
2023-04-24T05:28:45.797Z,17.10
2023-04-24T05:31:16.379Z,9.73
2023-04-24T05:33:46.914Z,13.15
2023-04-24T05:36:17.250Z,10.95
2023-04-24T05:38:47.552Z,14.25
2023-04-24T05:41:20.824Z,12.93
2023-04-24T05:43:51.110Z,11.02
2023-04-24T05:46:21.464Z,7.95
2023-04-24T05:48:51.759Z,9.90
2023-04-24T05:51:22.081Z,12.00
2023-04-24T05:53:52.495Z,10.65
2023-04-24T05:56:25.452Z,8.02
2023-04-24T05:58:56.530Z,12.15
2023-04-24T06:01:26.941Z,13.40
2023-04-24T06:03:57.374Z,11.20
2023-04-24T06:06:28.497Z,10.35
2023-04-24T06:08:59.885Z,14.40
2023-04-24T06:11:33.155Z,15.43
2023-04-24T06:14:03.529Z,11.52
2023-04-24T06:16:35.237Z,13.73
2023-04-24T06:19:05.541Z,13.25
2023-04-24T06:21:35.892Z,18.60
2023-04-24T06:24:06.201Z,15.25
2023-04-24T06:26:39.209Z,16.40
2023-04-24T06:29:09.509Z,16.27
2023-04-24T06:31:40.163Z,17.23
2023-04-24T06:34:10.618Z,13.18
2023-04-24T06:36:41.105Z,8.05
2023-04-24T06:39:11.476Z,16.25
2023-04-24T06:41:44.449Z,16.60
2023-04-24T06:44:15.840Z,16.33
2023-04-24T06:46:46.485Z,12.20
2023-04-24T06:49:17.302Z,17.00
2023-04-24T06:51:48.110Z,14.50
2023-04-24T06:54:18.474Z,15.30
2023-04-24T06:56:52.724Z,12.93
2023-04-24T06:59:22.987Z,9.85
2023-04-24T07:01:55.185Z,13.48
2023-04-24T07:04:26.698Z,10.40
2023-04-24T07:09:30.465Z,11.25
2023-04-24T07:12:03.415Z,6.28
2023-04-24T07:14:35.361Z,13.52
2023-04-24T07:17:07.397Z,9.57
2023-04-24T07:19:37.998Z,6.93
2023-04-24T07:22:08.337Z,8.57
2023-04-24T07:24:38.801Z,6.72
2023-04-24T07:27:11.793Z,10.45
2023-04-24T07:29:42.413Z,11.85
2023-04-24T07:32:13.182Z,10.20
2023-04-24T07:34:43.457Z,12.27
2023-04-24T07:37:14.091Z,14.15
2023-04-24T07:39:44.751Z,15.52
2023-04-24T07:42:17.998Z,12.23
2023-04-24T07:44:48.990Z,7.18
2023-04-24T07:47:19.478Z,5.10
2023-04-24T07:49:49.733Z,7.97
2023-04-24T07:52:20.321Z,6.95
2023-04-24T07:54:51.103Z,10.63
2023-04-24T07:57:24.179Z,10.52
2023-04-24T07:59:54.443Z,7.80
2023-04-24T08:02:27.904Z,10.45
2023-04-24T08:05:00.207Z,6.63
2023-04-24T08:07:30.973Z,7.97
2023-04-24T08:10:01.358Z,6.65
2023-04-24T08:12:34.490Z,11.23
2023-04-24T08:15:04.855Z,10.68
2023-04-24T08:17:35.207Z,4.63
2023-04-24T08:20:06.422Z,11.82
2023-04-24T08:25:06.969Z,12.68
2023-04-24T08:27:40.708Z,9.73
2023-04-24T08:30:11.668Z,13.82
2023-04-24T08:32:42.399Z,6.78
2023-04-24T08:35:13.658Z,12.23
2023-04-24T08:37:44.070Z,5.63
2023-04-24T08:40:17.384Z,5.88
2023-04-24T08:42:52.894Z,10.60
2023-04-24T08:45:23.418Z,6.20
2023-04-24T08:47:54.674Z,6.40
2023-04-24T08:50:25.314Z,5.07
2023-04-24T08:52:58.207Z,7.28
2023-04-24T08:55:28.962Z,7.22
2023-04-24T08:58:02.369Z,7.65
2023-04-24T09:00:33.022Z,6.57
2023-04-24T09:03:06.217Z,6.60
2023-04-24T09:05:37.289Z,9.82
2023-04-24T09:08:09.153Z,8.25
2023-04-24T09:10:39.607Z,4.93
2023-04-24T09:13:13.059Z,7.15
2023-04-24T09:15:43.570Z,4.43
2023-04-24T09:18:13.976Z,6.28
2023-04-24T09:20:59.155Z,8.73
2023-04-24T09:23:30.811Z,6.47
2023-04-24T09:26:01.692Z,5.13
2023-04-24T09:28:35.803Z,5.00
2023-04-24T09:31:10.457Z,4.03
2023-04-24T09:33:41.006Z,4.00
2023-04-24T09:36:11.471Z,9.68
2023-04-24T09:38:42.289Z,5.90
2023-04-24T09:41:13.380Z,3.47
2023-04-24T09:46:16.405Z,8.35
2023-04-24T09:48:46.813Z,6.38
2023-04-24T09:51:17.285Z,4.00
2023-04-24T09:53:51.016Z,3.40
2023-04-24T09:56:21.465Z,4.40
2023-04-24T09:58:51.795Z,6.03
2023-04-24T10:01:33.787Z,6.00
2023-04-24T10:04:04.685Z,6.85
2023-04-24T10:06:36.017Z,4.40
2023-04-24T10:09:07.482Z,4.30
2023-04-24T10:11:37.866Z,2.92
2023-04-24T10:14:08.385Z,4.88
2023-04-24T10:16:41.578Z,6.80
2023-04-24T10:19:12.207Z,4.22
2023-04-24T10:21:43.709Z,4.05
2023-04-24T10:24:14.072Z,3.20
2023-04-24T10:26:45.086Z,1.60
2023-04-24T10:29:16.687Z,4.78
2023-04-24T10:31:49.813Z,3.83
2023-04-24T10:34:21.573Z,4.10
2023-04-24T10:36:56.514Z,3.95
2023-04-24T10:39:28.660Z,5.00
2023-04-24T10:42:00.156Z,4.35
2023-04-24T10:44:40.424Z,2.28
2023-04-24T10:47:17.271Z,4.00
2023-04-24T10:49:47.674Z,5.15
2023-04-24T10:52:18.940Z,6.57
2023-04-24T10:54:50.645Z,1.95
2023-04-24T10:57:36.233Z,2.17
2023-04-24T11:00:18.357Z,4.47
2023-04-24T11:02:54.694Z,2.33
2023-04-24T11:05:25.488Z,5.20
2023-04-24T11:08:11.343Z,3.05
2023-04-24T11:10:42.885Z,3.55
2023-04-24T11:13:13.202Z,2.05
2023-04-24T11:15:46.476Z,5.10
2023-04-24T11:18:22.502Z,1.80
2023-04-24T11:20:53.322Z,4.80
2023-04-24T11:23:24.287Z,5.25
2023-04-24T11:26:14.613Z,4.72
2023-04-24T11:28:51.391Z,3.83
2023-04-24T11:31:36.787Z,4.35
2023-04-24T11:34:17.574Z,3.78
2023-04-24T11:36:48.355Z,2.97
2023-04-24T11:39:18.731Z,5.15
2023-04-24T11:41:49.162Z,1.95
2023-04-24T11:44:19.785Z,3.25
2023-04-24T11:46:50.113Z,3.70
2023-04-24T11:49:22.986Z,1.63
2023-04-24T11:51:54.566Z,3.03
2023-04-24T11:54:26.058Z,3.08
2023-04-24T11:56:57.281Z,3.90
2023-04-24T11:59:27.670Z,2.97
2023-04-24T12:01:57.981Z,3.10
2023-04-24T12:04:32.478Z,3.47
2023-04-24T12:07:09.254Z,7.43
2023-04-24T12:09:47.606Z,3.60
2023-04-24T12:12:18.876Z,2.78
2023-04-24T12:14:52.840Z,2.17
2023-04-24T12:17:29.461Z,3.53
2023-04-24T12:20:04.955Z,2.85
2023-04-24T12:22:48.577Z,1.95
2023-04-24T12:25:19.348Z,2.42
2023-04-24T12:27:49.758Z,2.03
2023-04-24T12:30:20.829Z,2.60
2023-04-24T12:35:27.099Z,3.50
2023-04-24T12:37:57.457Z,1.80
2023-04-24T12:40:31.457Z,3.50
2023-04-24T12:43:01.824Z,1.67
2023-04-24T12:45:32.444Z,1.83
2023-04-24T12:48:02.895Z,1.73
2023-04-24T12:50:35.828Z,1.23
2023-04-24T12:53:06.184Z,2.40
2023-04-24T12:55:36.459Z,2.75
2023-04-24T12:58:06.837Z,2.83
2023-04-24T13:00:37.522Z,2.67
2023-04-24T13:03:08.209Z,1.50
2023-04-24T13:05:41.389Z,3.47
2023-04-24T13:08:11.867Z,5.72
2023-04-24T13:10:42.197Z,3.97
2023-04-24T13:13:12.529Z,1.55
2023-04-24T13:15:42.811Z,3.47
2023-04-24T13:18:13.236Z,1.92
2023-04-24T13:20:48.516Z,2.88
2023-04-24T13:23:18.857Z,2.45
2023-04-24T13:25:49.170Z,2.88
2023-04-24T13:28:19.500Z,3.88
2023-04-24T13:30:51.704Z,2.13
2023-04-24T13:33:22.560Z,4.53
2023-04-24T13:35:55.612Z,8.07
2023-04-24T13:38:25.936Z,3.30
2023-04-24T13:40:56.298Z,3.15
2023-04-24T13:43:26.658Z,2.55
2023-04-24T13:45:57.063Z,3.40
2023-04-24T13:48:27.478Z,2.83
2023-04-24T13:51:00.465Z,5.78
2023-04-24T13:53:30.818Z,5.05
2023-04-24T13:56:01.132Z,4.53
2023-04-24T13:58:31.926Z,3.67
2023-04-24T14:01:02.244Z,3.90
2023-04-24T14:03:32.823Z,3.22
2023-04-24T14:06:05.835Z,2.22
2023-04-24T14:08:36.313Z,3.05
2023-04-24T14:11:06.823Z,1.55
2023-04-24T14:13:37.251Z,1.63
2023-04-24T14:16:07.724Z,4.00
2023-04-24T14:18:38.241Z,3.75
2023-04-24T14:21:11.524Z,1.95
2023-04-24T14:23:41.952Z,3.20
2023-04-24T14:26:12.373Z,3.17
2023-04-24T14:28:42.716Z,4.65
2023-04-24T14:31:13.154Z,3.95
2023-04-24T14:33:45.007Z,4.90
2023-04-24T14:36:18.133Z,4.53
2023-04-24T14:38:48.472Z,8.32
2023-04-24T14:41:18.777Z,3.55
2023-04-24T14:43:49.120Z,10.23
2023-04-24T14:46:19.494Z,5.93
2023-04-24T14:48:49.859Z,5.05
2023-04-24T14:51:22.784Z,3.17
2023-04-24T14:53:53.124Z,3.10
2023-04-24T14:56:23.498Z,3.50
2023-04-24T14:58:53.920Z,2.53
2023-04-24T15:01:25.297Z,3.70
2023-04-24T15:03:55.885Z,6.53
2023-04-24T15:06:29.069Z,3.38
2023-04-24T15:08:59.429Z,4.93
2023-04-24T15:11:29.744Z,7.35
2023-04-24T15:14:00.847Z,2.95
2023-04-24T15:16:31.282Z,3.88
2023-04-24T15:19:01.972Z,6.43
2023-04-24T15:21:35.219Z,4.55
2023-04-24T15:24:05.606Z,6.22
2023-04-24T15:26:35.921Z,4.30
2023-04-24T15:29:06.357Z,4.00
2023-04-24T15:31:40.853Z,3.00
2023-04-24T15:34:11.451Z,4.80
2023-04-24T15:36:44.365Z,5.68
2023-04-24T15:39:14.709Z,6.90
2023-04-24T15:41:45.008Z,3.33
2023-04-24T15:44:15.333Z,4.70
2023-04-24T15:46:45.725Z,4.72
2023-04-24T15:49:16.061Z,5.35
2023-04-24T15:51:48.962Z,6.35
2023-04-24T15:54:19.314Z,7.50
2023-04-24T15:56:49.639Z,4.57
2023-04-24T15:59:20.000Z,3.58
2023-04-24T16:01:51.274Z,6.75
2023-04-24T16:04:21.875Z,4.15
2023-04-24T16:06:55.096Z,4.30
2023-04-24T16:09:25.440Z,3.40
2023-04-24T16:11:55.829Z,8.38
2023-04-24T16:14:26.199Z,4.72
2023-04-24T16:16:56.560Z,2.58
2023-04-24T16:19:26.989Z,3.67
2023-04-24T16:22:00.292Z,5.03
2023-04-24T16:24:30.648Z,4.93
2023-04-24T16:27:01.144Z,5.97
2023-04-24T16:29:32.009Z,4.93
2023-04-24T16:32:02.319Z,4.22
2023-04-24T16:34:32.662Z,4.45
2023-04-24T16:37:05.632Z,3.95
2023-04-24T16:39:36.041Z,4.18
2023-04-24T16:42:07.005Z,4.65
2023-04-24T16:44:39.507Z,4.90
2023-04-24T16:47:09.888Z,3.70
2023-04-24T16:49:40.280Z,5.68
2023-04-24T16:52:14.409Z,5.72
2023-04-24T16:54:44.823Z,3.28
2023-04-24T16:57:15.208Z,5.90
2023-04-24T16:59:45.821Z,7.88
2023-04-24T17:02:16.210Z,4.15
2023-04-24T17:04:46.649Z,6.80
2023-04-24T17:07:19.638Z,5.28
2023-04-24T17:09:50.206Z,6.43
2023-04-24T17:12:20.581Z,6.05
2023-04-24T17:14:51.294Z,5.60
2023-04-24T17:17:23.347Z,3.80
2023-04-24T17:19:54.200Z,6.85
2023-04-24T17:22:27.133Z,4.10
2023-04-24T17:24:57.515Z,3.70
2023-04-24T17:27:28.207Z,6.50
2023-04-24T17:29:58.674Z,5.55
2023-04-24T17:32:28.995Z,7.63
2023-04-24T17:34:59.354Z,8.98
2023-04-24T17:37:32.545Z,4.47
2023-04-24T17:40:03.068Z,5.20
2023-04-24T17:42:33.631Z,5.45
2023-04-24T17:45:04.183Z,6.45
2023-04-24T17:47:34.535Z,5.38
2023-04-24T17:50:04.932Z,5.68
2023-04-24T17:52:37.945Z,7.30
2023-04-24T17:55:11.436Z,7.78
2023-04-24T17:57:41.809Z,6.35
2023-04-24T18:00:12.784Z,4.70
2023-04-24T18:02:43.246Z,6.50
2023-04-24T18:05:13.653Z,5.65
2023-04-24T18:07:43.947Z,5.57
2023-04-24T18:10:17.146Z,5.35
2023-04-24T18:12:47.464Z,4.93
2023-04-24T18:15:17.852Z,6.93
2023-04-24T18:17:48.558Z,5.60
2023-04-24T18:20:20.150Z,6.63
2023-04-24T18:22:50.931Z,6.90
2023-04-24T18:25:27.221Z,4.85
2023-04-24T18:27:57.641Z,6.15
2023-04-24T18:30:28.731Z,7.15
2023-04-24T18:32:59.115Z,6.82
2023-04-24T18:35:29.791Z,5.80
2023-04-24T18:38:00.180Z,5.70
2023-04-24T18:40:33.218Z,8.13
2023-04-24T18:43:03.572Z,11.55
2023-04-24T18:45:33.998Z,5.18
2023-04-24T18:48:04.397Z,7.57
2023-04-24T18:50:34.889Z,7.20
2023-04-24T18:53:05.250Z,8.70
2023-04-24T18:55:38.356Z,7.95
2023-04-24T18:58:08.686Z,7.80
2023-04-24T19:00:39.059Z,7.90
2023-04-24T19:03:09.609Z,7.25
2023-04-24T19:05:40.406Z,7.50
2023-04-24T19:08:10.854Z,10.10
2023-04-24T19:10:43.828Z,7.00
2023-04-24T19:13:14.190Z,5.78
2023-04-24T19:15:44.678Z,7.57
2023-04-24T19:18:15.045Z,9.57
2023-04-24T19:20:45.829Z,6.20
2023-04-24T19:23:16.402Z,7.88
2023-04-24T19:25:49.360Z,7.30
2023-04-24T19:28:20.757Z,8.98
2023-04-24T19:30:52.099Z,8.23
2023-04-24T19:33:22.497Z,11.70
2023-04-24T19:35:53.246Z,8.52
2023-04-24T19:38:23.773Z,7.75
2023-04-24T19:40:56.783Z,8.07
2023-04-24T19:43:27.117Z,11.00
2023-04-24T19:45:58.117Z,6.95
2023-04-24T19:51:01.732Z,10.13
2023-04-24T19:53:33.261Z,5.18
2023-04-24T19:56:06.266Z,5.80
2023-04-24T19:58:36.721Z,11.48
2023-04-24T20:01:07.144Z,12.13
2023-04-24T20:03:37.916Z,15.75
2023-04-24T20:06:08.574Z,11.50
2023-04-24T20:08:40.825Z,8.18
2023-04-24T20:11:13.834Z,8.52
2023-04-24T20:13:44.143Z,7.32
2023-04-24T20:16:14.645Z,6.50
2023-04-24T20:18:44.972Z,7.68
2023-04-24T20:21:15.381Z,9.23
2023-04-24T20:23:45.683Z,8.85
2023-04-24T20:26:18.668Z,7.57
2023-04-24T20:28:49.406Z,9.52
2023-04-24T20:31:20.093Z,10.00
2023-04-24T20:33:50.455Z,8.18
2023-04-24T20:36:21.068Z,13.75
2023-04-24T20:38:51.934Z,12.60
2023-04-24T20:41:24.961Z,10.85
2023-04-24T20:43:55.757Z,6.68
2023-04-24T20:46:28.851Z,8.48
2023-04-24T20:48:59.219Z,8.52
2023-04-24T20:51:30.107Z,11.13
2023-04-24T20:54:00.470Z,10.80
2023-04-24T20:56:33.445Z,11.27
2023-04-24T20:59:04.332Z,9.77
2023-04-24T21:01:34.778Z,10.63
2023-04-24T21:04:05.134Z,11.82
2023-04-24T21:06:35.650Z,9.07
2023-04-24T21:09:06.342Z,6.07
2023-04-24T21:11:39.460Z,8.68
2023-04-24T21:14:10.674Z,6.53
2023-04-24T21:19:11.223Z,8.43
2023-04-24T21:21:41.554Z,6.35
2023-04-24T21:24:11.891Z,11.55
2023-04-24T21:26:44.851Z,9.27
2023-04-24T21:29:15.395Z,5.10
2023-04-24T21:31:45.841Z,8.60
2023-04-24T21:34:16.632Z,5.78
2023-04-24T21:36:48.032Z,8.25
2023-04-24T21:39:18.527Z,9.40
2023-04-24T21:41:51.438Z,5.80
2023-04-24T21:44:21.753Z,8.85
2023-04-24T21:46:52.362Z,10.80
2023-04-24T21:49:22.670Z,7.70
2023-04-24T21:51:53.009Z,5.72
2023-04-24T21:54:23.479Z,6.30
2023-04-24T21:56:56.576Z,6.60
2023-04-24T21:59:26.927Z,5.80
2023-04-24T22:01:57.348Z,7.43
2023-04-24T22:04:28.100Z,10.07
2023-04-24T22:06:58.703Z,7.97
2023-04-24T22:09:29.047Z,10.48
2023-04-24T22:12:02.021Z,8.48
2023-04-24T22:14:32.343Z,11.07
2023-04-24T22:17:03.205Z,6.15
2023-04-24T22:19:33.474Z,8.55
2023-04-24T22:22:04.185Z,6.57
2023-04-24T22:24:34.508Z,8.15
2023-04-24T22:27:07.567Z,6.78
2023-04-24T22:29:37.829Z,12.05
2023-04-24T22:32:09.271Z,9.07
2023-04-24T22:34:39.924Z,5.43
2023-04-24T22:37:10.963Z,6.60
2023-04-24T22:39:41.391Z,8.35
2023-04-24T22:42:14.428Z,11.50
2023-04-24T22:44:44.760Z,8.70
2023-04-24T22:47:15.091Z,7.35
2023-04-24T22:49:46.357Z,9.32
2023-04-24T22:57:20.412Z,5.78
2023-04-24T22:59:50.755Z,8.35
2023-04-24T23:02:21.166Z,5.88
2023-04-24T23:04:51.674Z,8.15
2023-04-24T23:07:22.148Z,9.60
2023-04-24T23:09:52.421Z,8.90
2023-04-24T23:12:25.363Z,7.88
2023-04-24T23:14:55.662Z,5.78
2023-04-24T23:17:26.054Z,7.88
2023-04-24T23:19:56.463Z,12.02
2023-04-24T23:22:27.014Z,9.15
2023-04-24T23:24:57.281Z,9.60
2023-04-24T23:27:30.308Z,8.05
2023-04-24T23:30:00.587Z,11.35
2023-04-24T23:32:30.993Z,8.23
2023-04-24T23:35:01.361Z,5.40
2023-04-24T23:37:31.878Z,9.57
2023-04-24T23:40:02.572Z,8.02
2023-04-24T23:42:35.891Z,10.55
2023-04-24T23:45:06.436Z,11.07
2023-04-24T23:47:36.824Z,6.78
2023-04-24T23:50:07.615Z,8.98
2023-04-24T23:52:38.309Z,10.93
2023-04-24T23:55:09.597Z,10.38
